Airfield :
LOGIN :

Register | Disclaimer

   EN    FR    IT 

 










Legend :    VFR   Marginal VFR   IFR   Intensive IFR   Very Intensive IFR
Visi :
Ceiling :
>= 8 km
>= 3000ft
5 to 8 km
1000 to 3000 ft
1500m to 5 km
500 to 1000 ft
800 to 1500m
200 to 500 ft
< 800m
< 200 ft
Symbols :   Thunderstorms  Fog  Heavy snow  Heavy precipitations  Wind > 20 kt
SIGMETs :     Misc.  Thunderstorms  Icing  Turbulence  Mountain Waves  Volcanic Ashes






- Airport Elevation : 203 ft
- IATA code : XMJ


LFBM - Mont-De-Marsan

CURRENT METAR :
  • 241230Z AUTO 23009KT 190V270 9999 ///TCU 09/05 Q1010 TEMPO 24015G35KT 2000 TSRA SCT010 SCT015CB

EXPIRED METARs :
  • 241200Z AUTO 23009KT 180V260 CAVOK 08/05 Q1010 TEMPO 24015G35KT 2000 TSRA SCT010 SCT015CB
  • 241130Z AUTO 23010KT 190V260 9999 FEW020/// BKN130/// OVC150/// ///CB 08/05 Q1010 TEMPO 24015G35KT 2000 TSRA
  • 241100Z AUTO 24010KT 9999 FEW014/// SCT140/// ///CB 09/06 Q1009 TEMPO 24015G35KT 2000 TSRA
  • 241030Z AUTO 22007KT 190V250 CAVOK 07/05 Q1009 TEMPO 24015G35KT 2000 TSRA SCT010 SCT015CB
  • 241000Z AUTO 21006KT 160V240 CAVOK 06/04 Q1008 TEMPO 24015G35KT 2000 TSRA SCT010 SCT015CB
  • 240930Z AUTO 20008KT 170V250 9999 ///CB 05/04 Q1008 TEMPO 24015G35KT 2000 TSRA
  • 240900Z AUTO 20008KT 9999 -RA FEW023/// SCT040/// BKN064/// ///CB 05/04 Q1008 TEMPO 24015G35KT 2000 TSRA
  • 240830Z AUTO 24008KT 190V270 9999 -RA BKN010/// BKN016/// OVC022/// ///CB 05/04 Q1008 TEMPO 24015G35KT 2000 TSRA SCT010 SCT015CB
  • 240800Z AUTO 25006KT 210V290 9999 RA FEW013/// BKN018/// BKN028/// ///CB 05/04 Q1007 TEMPO 24015G25KT 4000 SHRA
  • 240730Z AUTO 22009KT 180V260 9000 RA BKN011/// BKN027/// BKN042/// ///CB 05/04 Q1006 TEMPO 24015G25KT 4000 SHRA SCT020TCU

TAF TAF LFBM
Valid from the 24 at 09:00 until the 25 at 09:00 UTC


240800Z 2409/2509 24010KT 9999 BKN020
TEMPO 2409/2421 24015G25KT 4000 SHRA SCT010 SCT020CB
PROB40
TEMPO 2410/2418 24015G35KT 2000 TSRA SCT010 SCT015CB
BECMG 2500/2503 RA



MET'MAP, your aeronautical weather chart ! - Copyright ORBIFLY December 2007 - Disclaimer

ORBIFLY MET'MAP TEAM :

Programming & Development : Alexandra Zaïnal
Original concept : Baudouin d'Aumeries
Technical & hardware support : Manuel Goepfert
Assistance : Marc-Olivier Méhu




SOURCES & CREDITS :

   NOAA